createdAt,value
2019-04-06T00:00:23.448Z,88.15
2019-04-06T00:02:58.584Z,88.13
2019-04-06T00:05:33.972Z,88.38
2019-04-06T00:08:10.006Z,88.09
2019-04-06T00:10:45.037Z,87.97
2019-04-06T00:13:20.106Z,88.12
2019-04-06T00:15:55.128Z,87.75
2019-04-06T00:18:30.244Z,87.76
2019-04-06T00:21:05.298Z,87.84
2019-04-06T00:23:40.356Z,87.85
2019-04-06T00:26:15.515Z,87.83
2019-04-06T00:28:50.952Z,87.77
2019-04-06T00:31:36.698Z,88.06
2019-04-06T00:34:11.975Z,87.95
2019-04-06T00:36:48.380Z,87.72
2019-04-06T00:39:23.629Z,87.99
2019-04-06T00:41:58.705Z,88.33
2019-04-06T00:44:34.325Z,88.34
2019-04-06T00:47:10.147Z,88.40
2019-04-06T00:49:45.299Z,88.55
2019-04-06T00:52:20.354Z,88.54
2019-04-06T00:54:55.390Z,88.60
2019-04-06T00:57:30.434Z,88.33
2019-04-06T01:00:05.997Z,88.31
2019-04-06T01:02:41.422Z,88.40
2019-04-06T01:05:16.417Z,88.49
2019-04-06T01:07:51.654Z,88.37
2019-04-06T01:10:26.840Z,88.36
2019-04-06T01:13:02.071Z,88.42
2019-04-06T01:15:37.131Z,88.51
2019-04-06T01:18:12.268Z,88.47
2019-04-06T01:20:47.289Z,88.49
2019-04-06T01:23:22.608Z,88.42
2019-04-06T01:26:06.577Z,88.13
2019-04-06T01:28:34.725Z,87.69
2019-04-06T01:31:09.729Z,87.24
2019-04-06T01:33:44.879Z,87.81
2019-04-06T01:36:19.897Z,87.79
2019-04-06T01:38:55.075Z,87.75
2019-04-06T01:41:30.177Z,87.96
2019-04-06T01:44:05.210Z,88.22
2019-04-06T01:46:41.422Z,88.28
2019-04-06T01:49:16.619Z,88.35
2019-04-06T01:51:51.938Z,88.60
2019-04-06T01:54:27.035Z,88.56
2019-04-06T01:57:04.161Z,88.28
2019-04-06T01:59:39.235Z,88.30
2019-04-06T02:02:24.807Z,88.41
2019-04-06T02:04:59.885Z,88.47
2019-04-06T02:07:35.208Z,88.58
2019-04-06T02:10:10.438Z,88.40
2019-04-06T02:12:45.771Z,88.42
2019-04-06T02:15:21.769Z,88.38
2019-04-06T02:17:56.773Z,88.39
2019-04-06T02:20:32.248Z,88.44
2019-04-06T02:23:10.366Z,88.41
2019-04-06T02:25:45.413Z,88.50
2019-04-06T02:28:21.508Z,88.50
2019-04-06T02:31:15.332Z,88.36
2019-04-06T02:34:18.290Z,88.52
2019-04-06T02:37:12.441Z,88.41
2019-04-06T02:40:09.397Z,88.56
2019-04-06T02:42:48.896Z,88.37
2019-04-06T02:45:23.983Z,88.55
2019-04-06T02:47:58.988Z,88.54
2019-04-06T02:50:34.488Z,88.73
2019-04-06T02:53:09.579Z,88.55
2019-04-06T02:55:44.599Z,88.80
2019-04-06T02:58:19.627Z,88.65
2019-04-06T03:00:54.858Z,88.71
2019-04-06T03:03:29.876Z,88.65
2019-04-06T03:06:05.996Z,88.50
2019-04-06T03:08:41.807Z,88.45
2019-04-06T03:11:16.828Z,88.34
2019-04-06T03:13:51.981Z,87.89
2019-04-06T03:16:27.396Z,88.26
2019-04-06T03:19:03.524Z,88.37
2019-04-06T03:21:38.748Z,88.23
2019-04-06T03:24:13.900Z,88.44
2019-04-06T03:27:00.712Z,88.37
2019-04-06T03:29:25.877Z,88.34
2019-04-06T03:32:01.371Z,87.95
2019-04-06T03:34:36.791Z,88.45
2019-04-06T03:37:12.093Z,88.51
2019-04-06T03:39:47.109Z,88.72
2019-04-06T03:42:22.349Z,88.91
2019-04-06T03:44:57.584Z,88.64
2019-04-06T03:47:32.876Z,88.60
2019-04-06T03:50:10.162Z,88.43
2019-04-06T03:52:45.407Z,88.29
2019-04-06T03:55:20.477Z,88.69
2019-04-06T03:57:55.515Z,88.70
2019-04-06T04:00:30.506Z,88.87
2019-04-06T04:03:06.237Z,89.04
2019-04-06T04:05:41.277Z,89.22
2019-04-06T04:08:16.549Z,89.07
2019-04-06T04:10:51.834Z,88.97
2019-04-06T04:13:27.444Z,88.52
2019-04-06T04:16:03.172Z,88.74
2019-04-06T04:18:39.192Z,89.11
2019-04-06T04:21:14.354Z,89.21
2019-04-06T04:23:49.332Z,89.15
2019-04-06T04:26:24.551Z,89.02
2019-04-06T04:29:00.451Z,89.00
2019-04-06T04:31:35.838Z,88.96
2019-04-06T04:34:11.061Z,89.10
2019-04-06T04:36:46.015Z,88.98
2019-04-06T04:39:21.164Z,88.61
2019-04-06T04:41:56.269Z,88.58
2019-04-06T04:44:31.272Z,88.52
2019-04-06T04:47:10.702Z,88.72
2019-04-06T04:49:45.737Z,88.66
2019-04-06T04:52:21.234Z,88.26
2019-04-06T04:54:56.420Z,88.41
2019-04-06T04:57:40.041Z,88.22
2019-04-06T05:00:14.645Z,88.23
2019-04-06T05:02:50.283Z,88.44
2019-04-06T05:05:25.535Z,88.23
2019-04-06T05:08:00.775Z,88.34
2019-04-06T05:10:35.961Z,88.21
2019-04-06T05:13:11.125Z,88.18
2019-04-06T05:16:13.488Z,88.12
2019-04-06T05:18:48.821Z,87.94
2019-04-06T05:21:24.657Z,87.85
2019-04-06T05:23:59.712Z,87.58
2019-04-06T05:26:39.821Z,87.63
2019-04-06T05:29:15.651Z,87.43
2019-04-06T05:31:50.653Z,87.47
2019-04-06T05:34:25.761Z,87.26
2019-04-06T05:37:01.541Z,87.26
2019-04-06T05:39:36.661Z,87.50
2019-04-06T05:42:11.793Z,87.36
2019-04-06T05:44:46.985Z,87.45
2019-04-06T05:47:22.157Z,87.25
2019-04-06T05:49:57.303Z,86.79
2019-04-06T05:52:33.177Z,86.74
2019-04-06T05:55:08.549Z,86.62
2019-04-06T05:57:43.756Z,86.55
2019-04-06T06:00:18.960Z,86.59
2019-04-06T06:02:54.153Z,85.72
2019-04-06T06:05:29.157Z,85.97
2019-04-06T06:08:04.556Z,85.69
2019-04-06T06:10:39.539Z,85.84
2019-04-06T06:13:14.663Z,85.61
2019-04-06T06:15:49.661Z,85.64
2019-04-06T06:18:27.492Z,84.93
2019-04-06T06:21:01.612Z,84.95
2019-04-06T06:23:36.641Z,85.02
2019-04-06T06:26:11.769Z,84.88
2019-04-06T06:28:46.769Z,84.72
2019-04-06T06:31:21.961Z,84.76
2019-04-06T06:33:57.156Z,84.69
2019-04-06T06:36:32.397Z,84.42
2019-04-06T06:39:09.754Z,83.99
2019-04-06T06:41:48.227Z,83.97
2019-04-06T06:44:23.463Z,84.14
2019-04-06T06:46:58.913Z,83.69
2019-04-06T06:49:34.303Z,83.35
2019-04-06T06:52:09.419Z,83.22
2019-04-06T06:54:44.695Z,82.67
2019-04-06T06:57:20.762Z,83.14
2019-04-06T06:59:59.004Z,82.62
2019-04-06T07:02:34.550Z,82.01
2019-04-06T07:05:11.073Z,82.04
2019-04-06T07:07:46.304Z,81.56
2019-04-06T07:10:21.424Z,81.35
2019-04-06T07:13:04.765Z,81.02
2019-04-06T07:15:39.847Z,81.04
2019-04-06T07:18:14.875Z,80.05
2019-04-06T07:20:49.921Z,79.17
2019-04-06T07:23:27.519Z,79.94
2019-04-06T07:26:07.951Z,79.53
2019-04-06T07:28:43.093Z,78.87
2019-04-06T07:31:18.071Z,79.38
2019-04-06T07:33:54.481Z,79.36
2019-04-06T07:36:29.524Z,78.56
2019-04-06T07:39:06.183Z,78.62
2019-04-06T07:41:44.322Z,77.93
2019-04-06T07:44:19.919Z,78.46
2019-04-06T07:46:55.005Z,77.44
2019-04-06T07:49:30.275Z,77.48
2019-04-06T07:52:05.729Z,76.98
2019-04-06T07:54:41.502Z,76.89
2019-04-06T07:57:16.509Z,76.73
2019-04-06T07:59:51.717Z,77.50
2019-04-06T08:02:28.468Z,78.82
2019-04-06T08:05:04.768Z,78.18
2019-04-06T08:07:39.977Z,77.95
2019-04-06T08:10:15.254Z,77.54
2019-04-06T08:12:50.295Z,77.61
2019-04-06T08:15:25.496Z,78.22
2019-04-06T08:18:03.759Z,76.81
2019-04-06T08:20:38.857Z,77.46
2019-04-06T08:23:14.341Z,77.79
2019-04-06T08:25:49.366Z,77.75
2019-04-06T08:28:24.658Z,77.77
2019-04-06T08:30:59.925Z,77.83
2019-04-06T08:33:36.597Z,78.09
2019-04-06T08:36:11.777Z,77.61
2019-04-06T08:38:46.967Z,76.77
2019-04-06T08:41:22.234Z,77.08
2019-04-06T08:43:57.229Z,76.23
2019-04-06T08:46:33.193Z,76.29
2019-04-06T08:49:08.294Z,76.50
2019-04-06T08:51:43.648Z,75.87
2019-04-06T08:54:18.706Z,75.74
2019-04-06T08:56:54.712Z,75.93
2019-04-06T08:59:30.067Z,75.08
2019-04-06T09:02:05.345Z,74.53
2019-04-06T09:04:40.435Z,74.29
2019-04-06T09:07:15.448Z,73.80
2019-04-06T09:09:50.459Z,73.35
2019-04-06T09:12:25.590Z,73.64
2019-04-06T09:15:00.685Z,73.22
2019-04-06T09:17:35.873Z,73.48
2019-04-06T09:20:11.325Z,72.41
2019-04-06T09:22:47.601Z,72.29
2019-04-06T09:25:23.734Z,74.02
2019-04-06T09:28:01.358Z,73.36
2019-04-06T09:30:55.797Z,71.84
2019-04-06T09:33:36.019Z,72.05
2019-04-06T09:36:12.140Z,72.34
2019-04-06T09:38:48.636Z,72.49
2019-04-06T09:41:26.079Z,71.64
2019-04-06T09:44:01.041Z,71.28
2019-04-06T09:47:00.275Z,71.17
2019-04-06T09:49:54.601Z,70.93
2019-04-06T09:52:38.726Z,70.75
2019-04-06T09:55:40.064Z,71.24
2019-04-06T09:58:40.013Z,71.08
2019-04-06T10:01:38.950Z,71.57
2019-04-06T10:04:43.449Z,71.89
2019-04-06T10:07:43.440Z,71.44
2019-04-06T10:10:38.102Z,71.10
2019-04-06T10:13:47.620Z,70.27
2019-04-06T10:16:41.909Z,69.65
2019-04-06T10:19:30.540Z,69.46
2019-04-06T10:22:42.507Z,69.45
2019-04-06T10:25:42.565Z,67.63
2019-04-06T10:28:34.932Z,68.38
2019-04-06T10:31:45.299Z,68.23
2019-04-06T10:34:41.874Z,66.76
2019-04-06T10:37:39.959Z,66.81
2019-04-06T10:40:35.485Z,67.83
2019-04-06T10:43:18.528Z,68.19
2019-04-06T10:46:22.080Z,67.94
2019-04-06T10:49:18.722Z,67.91
2019-04-06T10:52:14.868Z,66.75
2019-04-06T10:54:58.569Z,65.62
2019-04-06T10:57:56.078Z,65.26
2019-04-06T11:00:53.720Z,64.85
2019-04-06T11:03:44.552Z,64.47
2019-04-06T11:06:38.438Z,63.78
2019-04-06T11:09:40.741Z,63.13
2019-04-06T11:12:37.760Z,62.99
2019-04-06T11:15:30.477Z,62.94
2019-04-06T11:18:23.190Z,63.08
2019-04-06T11:21:22.215Z,60.66
2019-04-06T11:24:25.337Z,62.04
2019-04-06T11:27:22.267Z,60.39
2019-04-06T11:30:15.396Z,59.67
2019-04-06T11:33:07.009Z,58.14
2019-04-06T11:36:01.213Z,56.26
2019-04-06T11:38:50.030Z,56.33
2019-04-06T11:41:42.816Z,56.27
2019-04-06T11:44:33.043Z,55.77
2019-04-06T11:47:23.242Z,55.83
2019-04-06T11:50:26.114Z,55.29
2019-04-06T11:53:26.117Z,53.23
2019-04-06T11:56:09.993Z,53.25
2019-04-06T11:59:02.602Z,52.27
2019-04-06T12:02:02.634Z,52.75
2019-04-06T12:04:44.010Z,53.12
2019-04-06T12:07:29.452Z,51.62
2019-04-06T12:10:22.100Z,50.15
2019-04-06T12:13:19.940Z,50.22
2019-04-06T12:16:19.828Z,48.11
2019-04-06T12:19:15.188Z,47.85
2019-04-06T12:22:24.105Z,48.08
2019-04-06T12:25:16.901Z,47.66
2019-04-06T12:28:13.939Z,46.83
2019-04-06T12:30:53.536Z,44.15
2019-04-06T12:33:43.398Z,45.69
2019-04-06T12:36:22.962Z,44.12
2019-04-06T12:39:15.439Z,43.96
2019-04-06T12:42:03.972Z,44.13
2019-04-06T12:44:54.635Z,43.20
2019-04-06T12:47:48.505Z,43.62
2019-04-06T12:50:43.945Z,42.75
2019-04-06T12:53:37.886Z,42.77
2019-04-06T12:56:24.430Z,41.34
2019-04-06T12:59:21.832Z,41.89
2019-04-06T13:02:11.937Z,41.79
2019-04-06T13:05:00.634Z,40.00
2019-04-06T13:07:57.171Z,40.20
2019-04-06T13:10:47.306Z,38.95
2019-04-06T13:13:35.320Z,40.91
2019-04-06T13:16:34.122Z,39.58
2019-04-06T13:19:26.082Z,39.45
2019-04-06T13:22:24.086Z,37.82
2019-04-06T13:25:31.059Z,38.62
2019-04-06T13:28:22.458Z,37.51
2019-04-06T13:31:05.041Z,39.32
2019-04-06T13:33:57.836Z,37.30
2019-04-06T13:36:51.914Z,37.75
2019-04-06T13:39:36.566Z,36.63
2019-04-06T13:42:35.884Z,36.30
2019-04-06T13:45:36.925Z,37.09
2019-04-06T13:48:29.708Z,36.07
2019-04-06T13:51:15.364Z,37.63
2019-04-06T13:54:03.599Z,37.26
2019-04-06T13:56:56.166Z,36.19
2019-04-06T13:59:48.912Z,35.14
2019-04-06T14:02:38.618Z,33.08
2019-04-06T14:05:36.523Z,35.42
2019-04-06T14:08:33.599Z,35.77
2019-04-06T14:11:26.928Z,35.55
2019-04-06T14:14:13.130Z,36.18
2019-04-06T14:17:07.089Z,35.89
2019-04-06T14:20:00.806Z,34.35
2019-04-06T14:22:57.830Z,32.52
2019-04-06T14:25:53.230Z,33.38
2019-04-06T14:28:45.247Z,33.03
2019-04-06T14:31:45.275Z,32.63
2019-04-06T14:34:39.345Z,32.34
2019-04-06T14:37:36.178Z,32.28
2019-04-06T14:40:39.385Z,32.80
2019-04-06T14:43:32.316Z,32.19
2019-04-06T14:46:14.255Z,31.75
2019-04-06T14:49:29.435Z,31.67
2019-04-06T14:52:09.868Z,31.01
2019-04-06T14:55:00.256Z,31.20
2019-04-06T14:57:54.581Z,31.47
2019-04-06T15:00:51.822Z,31.10
2019-04-06T15:03:45.907Z,31.45
2019-04-06T15:06:42.575Z,31.49
2019-04-06T15:09:42.684Z,32.39
2019-04-06T15:12:35.655Z,33.30
2019-04-06T15:15:45.024Z,33.05
2019-04-06T15:18:36.777Z,32.70
2019-04-06T15:21:33.727Z,32.36
2019-04-06T15:24:26.122Z,33.11
2019-04-06T15:27:18.305Z,31.88
2019-04-06T15:30:27.328Z,33.50
2019-04-06T15:33:20.143Z,32.19
2019-04-06T15:36:08.273Z,31.81
2019-04-06T15:39:02.357Z,32.04
2019-04-06T15:41:56.342Z,31.49
2019-04-06T15:45:06.513Z,31.39
2019-04-06T15:48:06.635Z,30.60
2019-04-06T15:50:57.446Z,31.29
2019-04-06T15:53:51.159Z,31.64
2019-04-06T15:56:54.225Z,32.13
2019-04-06T16:00:03.341Z,32.38
2019-04-06T16:03:01.424Z,32.57
2019-04-06T16:05:45.922Z,34.08
2019-04-06T16:08:39.767Z,32.96
2019-04-06T16:11:25.941Z,32.23
2019-04-06T16:14:11.294Z,33.27
2019-04-06T16:17:17.678Z,33.83
2019-04-06T16:20:03.047Z,33.89
2019-04-06T16:23:12.229Z,34.54
2019-04-06T16:26:06.054Z,32.20
2019-04-06T16:28:47.671Z,32.69
2019-04-06T16:31:31.067Z,32.92
2019-04-06T16:34:23.496Z,33.98
2019-04-06T16:37:20.538Z,34.86
2019-04-06T16:40:14.626Z,34.94
2019-04-06T16:43:02.931Z,35.24
2019-04-06T16:46:05.978Z,35.08
2019-04-06T16:48:57.559Z,35.14
2019-04-06T16:51:52.981Z,35.37
2019-04-06T16:54:56.391Z,36.34
2019-04-06T16:58:02.370Z,36.49
2019-04-06T17:00:59.470Z,36.75
2019-04-06T17:03:56.093Z,38.55
2019-04-06T17:07:03.202Z,40.99
2019-04-06T17:09:45.661Z,42.86
2019-04-06T17:12:39.566Z,44.55
2019-04-06T17:15:36.263Z,45.79
2019-04-06T17:18:48.497Z,48.90
2019-04-06T17:21:42.688Z,50.09
2019-04-06T17:24:48.828Z,50.05
2019-04-06T17:27:49.034Z,51.40
2019-04-06T17:30:29.759Z,52.46
2019-04-06T17:33:22.495Z,53.60
2019-04-06T17:36:06.820Z,54.10
2019-04-06T17:38:54.840Z,54.32
2019-04-06T17:41:52.083Z,55.06
2019-04-06T17:44:39.403Z,55.88
2019-04-06T17:47:30.221Z,56.58
2019-04-06T17:50:24.820Z,58.09
2019-04-06T17:53:14.755Z,58.96
2019-04-06T17:56:09.149Z,59.63
2019-04-06T17:59:06.397Z,59.18
2019-04-06T18:02:00.530Z,60.18
2019-04-06T18:05:03.571Z,60.74
2019-04-06T18:07:56.962Z,61.50
2019-04-06T18:10:52.792Z,62.78
2019-04-06T18:13:54.544Z,62.52
2019-04-06T18:16:35.555Z,63.64
2019-04-06T18:19:11.373Z,63.87
2019-04-06T18:21:47.218Z,64.04
2019-04-06T18:24:24.158Z,64.45
2019-04-06T18:26:59.251Z,64.39
2019-04-06T18:29:36.906Z,64.62
2019-04-06T18:32:25.482Z,64.86
2019-04-06T18:35:00.422Z,65.09
2019-04-06T18:37:46.772Z,65.04
2019-04-06T18:40:25.325Z,65.99
2019-04-06T18:43:01.940Z,66.32
2019-04-06T18:45:37.078Z,65.70
2019-04-06T18:48:12.422Z,65.94
2019-04-06T18:50:47.484Z,66.29
2019-04-06T18:53:23.008Z,66.30
2019-04-06T18:55:58.501Z,66.30
2019-04-06T18:58:35.486Z,66.17
2019-04-06T19:01:11.161Z,66.53
2019-04-06T19:03:46.443Z,66.69
2019-04-06T19:06:24.719Z,66.56
2019-04-06T19:08:59.969Z,66.54
2019-04-06T19:11:44.474Z,67.12
2019-04-06T19:14:18.607Z,66.78
2019-04-06T19:16:53.903Z,66.84
2019-04-06T19:19:30.178Z,66.53
2019-04-06T19:22:05.656Z,67.06
2019-04-06T19:24:41.813Z,67.45
2019-04-06T19:27:19.897Z,66.02
2019-04-06T19:29:55.227Z,65.63
2019-04-06T19:32:30.591Z,66.02
2019-04-06T19:35:06.837Z,65.69
2019-04-06T19:37:42.249Z,65.94
2019-04-06T19:40:17.783Z,66.00
2019-04-06T19:42:53.669Z,65.76
2019-04-06T19:45:28.905Z,65.77
2019-04-06T19:48:05.377Z,66.51
2019-04-06T19:50:40.756Z,65.31
2019-04-06T19:53:16.586Z,65.66
2019-04-06T19:55:53.455Z,65.83
2019-04-06T19:58:28.550Z,66.35
2019-04-06T20:01:04.262Z,66.26
2019-04-06T20:03:40.371Z,66.18
2019-04-06T20:06:18.315Z,66.59
2019-04-06T20:08:53.924Z,67.06
2019-04-06T20:11:29.137Z,67.70
2019-04-06T20:14:05.416Z,67.85
2019-04-06T20:16:40.809Z,67.73
2019-04-06T20:19:16.180Z,68.10
2019-04-06T20:21:52.016Z,68.10
2019-04-06T20:24:27.381Z,69.00
2019-04-06T20:27:02.763Z,69.64
2019-04-06T20:29:37.993Z,69.77
2019-04-06T20:32:13.382Z,69.96
2019-04-06T20:34:53.938Z,70.21
2019-04-06T20:37:31.947Z,70.25
2019-04-06T20:40:09.650Z,70.60
2019-04-06T20:42:45.211Z,70.26
2019-04-06T20:45:20.427Z,70.59
2019-04-06T20:47:57.422Z,70.54
2019-04-06T20:50:34.356Z,70.48
2019-04-06T20:53:12.371Z,70.92
2019-04-06T20:55:47.488Z,70.64
2019-04-06T20:58:22.951Z,71.00
2019-04-06T21:00:58.182Z,70.99
2019-04-06T21:03:33.604Z,71.10
2019-04-06T21:06:08.799Z,71.00
2019-04-06T21:08:44.082Z,71.04
2019-04-06T21:11:20.521Z,70.84
2019-04-06T21:13:56.212Z,71.06
2019-04-06T21:16:32.178Z,71.06
2019-04-06T21:19:07.290Z,70.50
2019-04-06T21:21:42.731Z,70.39
2019-04-06T21:24:18.075Z,70.60
2019-04-06T21:26:53.346Z,70.74
2019-04-06T21:29:28.865Z,70.63
2019-04-06T21:32:04.026Z,70.40
2019-04-06T21:34:39.349Z,70.74
2019-04-06T21:37:15.097Z,70.37
2019-04-06T21:39:50.152Z,70.72
2019-04-06T21:42:25.407Z,70.49
2019-04-06T21:45:00.430Z,70.64
2019-04-06T21:47:37.535Z,69.92
2019-04-06T21:50:12.823Z,69.98
2019-04-06T21:52:49.548Z,69.77
2019-04-06T21:55:24.764Z,70.47
2019-04-06T21:57:59.808Z,70.13
2019-04-06T22:00:50.028Z,70.40
2019-04-06T22:03:25.861Z,70.31
2019-04-06T22:06:01.348Z,70.48
2019-04-06T22:08:36.392Z,70.47
2019-04-06T22:11:11.974Z,70.56
2019-04-06T22:13:47.434Z,70.29
2019-04-06T22:16:23.318Z,70.42
2019-04-06T22:18:58.819Z,70.74
2019-04-06T22:21:34.720Z,70.47
2019-04-06T22:24:10.413Z,70.74
2019-04-06T22:26:45.973Z,70.66
2019-04-06T22:29:22.167Z,70.72
2019-04-06T22:31:57.320Z,70.70
2019-04-06T22:34:39.436Z,70.41
2019-04-06T22:37:09.947Z,70.49
2019-04-06T22:39:45.368Z,70.41
2019-04-06T22:42:21.285Z,70.56
2019-04-06T22:44:56.396Z,70.63
2019-04-06T22:47:31.552Z,70.16
2019-04-06T22:50:07.694Z,70.81
2019-04-06T22:52:43.446Z,70.50
2019-04-06T22:55:18.533Z,70.89
2019-04-06T22:57:54.548Z,70.89
2019-04-06T23:00:32.810Z,70.76
2019-04-06T23:03:25.329Z,71.40
2019-04-06T23:06:04.029Z,71.50
2019-04-06T23:08:39.366Z,71.77
2019-04-06T23:11:14.491Z,72.27
2019-04-06T23:13:49.639Z,72.45
2019-04-06T23:16:24.716Z,72.60
2019-04-06T23:19:00.295Z,72.92
2019-04-06T23:21:36.186Z,72.92
2019-04-06T23:24:11.451Z,72.86
2019-04-06T23:26:46.555Z,73.34
2019-04-06T23:29:22.150Z,73.58
2019-04-06T23:31:57.625Z,73.59
2019-04-06T23:34:33.012Z,73.77
2019-04-06T23:37:08.403Z,74.19
2019-04-06T23:39:43.704Z,74.34
2019-04-06T23:42:18.719Z,74.41
2019-04-06T23:44:56.067Z,74.24
2019-04-06T23:47:34.132Z,74.50
2019-04-06T23:50:13.323Z,74.60
2019-04-06T23:52:49.104Z,74.61
2019-04-06T23:55:26.119Z,74.91
2019-04-06T23:58:02.000Z,75.00
